Terminal Aerodrome Forecast
Issued by NWS Albany, NY

Home | Current Version | Previous Version | Text Only | Print | Product List | Glossary On
Versions: 1 2 3 4 5 6 7 8 9 10 11 12 13 14 15 16
000
FTUS41 KALY 042359
TAFGFL
TAF
KGFL 042359Z 0500/0524 21006KT P6SM BKN100
     FM050300 20006KT P6SM VCSH BKN050 OVC080
     FM050900 31007KT P6SM OVC050
     FM051200 02008G14KT P6SM BKN250
     FM051600 02008KT P6SM SCT250=

USA.gov is the U.S. government's official web portal to all federal, state and local government web resources and services.